sensor_id;sensor_type;location;lat;lon;timestamp;pressure;altitude;pressure_sealevel;temperature;humidity
41260;BME280;26993;48.958;9.330;2022-12-07T00:00:24;98572.81;;;3.12;100.00
41260;BME280;26993;48.958;9.330;2022-12-07T00:03:11;98575.34;;;3.11;100.00
41260;BME280;26993;48.958;9.330;2022-12-07T00:05:58;98573.06;;;3.20;100.00
41260;BME280;26993;48.958;9.330;2022-12-07T00:08:45;98570.69;;;3.26;100.00
41260;BME280;26993;48.958;9.330;2022-12-07T00:11:33;98567.06;;;3.18;100.00
41260;BME280;26993;48.958;9.330;2022-12-07T00:14:20;98568.78;;;3.19;100.00
41260;BME280;26993;48.958;9.330;2022-12-07T00:17:07;98571.69;;;3.31;100.00
41260;BME280;26993;48.958;9.330;2022-12-07T00:19:54;98570.31;;;3.14;100.00
41260;BME280;26993;48.958;9.330;2022-12-07T00:22:40;98569.03;;;3.28;100.00
41260;BME280;26993;48.958;9.330;2022-12-07T00:25:27;98566.31;;;3.22;100.00
41260;BME280;26993;48.958;9.330;2022-12-07T00:28:15;98567.59;;;3.08;100.00
41260;BME280;26993;48.958;9.330;2022-12-07T00:31:04;98569.44;;;2.84;100.00
41260;BME280;26993;48.958;9.330;2022-12-07T00:33:51;98569.81;;;2.97;100.00
41260;BME280;26993;48.958;9.330;2022-12-07T00:36:38;98569.09;;;3.01;100.00
41260;BME280;26993;48.958;9.330;2022-12-07T00:39:25;98561.41;;;2.99;100.00
41260;BME280;26993;48.958;9.330;2022-12-07T00:42:11;98558.94;;;2.74;100.00
41260;BME280;26993;48.958;9.330;2022-12-07T00:44:59;98563.56;;;2.85;100.00
41260;BME280;26993;48.958;9.330;2022-12-07T00:47:46;98554.25;;;2.88;100.00
41260;BME280;26993;48.958;9.330;2022-12-07T00:50:32;98560.31;;;2.91;100.00
41260;BME280;26993;48.958;9.330;2022-12-07T00:53:19;98560.72;;;2.76;100.00
41260;BME280;26993;48.958;9.330;2022-12-07T00:56:07;98559.97;;;2.80;100.00
41260;BME280;26993;48.958;9.330;2022-12-07T00:58:55;98563.09;;;2.72;100.00
41260;BME280;26993;48.958;9.330;2022-12-07T01:01:43;98559.50;;;2.65;100.00
41260;BME280;26993;48.958;9.330;2022-12-07T01:04:30;98564.53;;;2.63;100.00
41260;BME280;26993;48.958;9.330;2022-12-07T01:07:19;98562.91;;;2.65;100.00
41260;BME280;26993;48.958;9.330;2022-12-07T01:10:07;98566.22;;;2.63;100.00
41260;BME280;26993;48.958;9.330;2022-12-07T01:12:54;98564.38;;;2.59;100.00
41260;BME280;26993;48.958;9.330;2022-12-07T01:15:40;98564.72;;;2.69;100.00
41260;BME280;26993;48.958;9.330;2022-12-07T01:18:30;98565.00;;;2.77;100.00
41260;BME280;26993;48.958;9.330;2022-12-07T01:21:18;98558.78;;;2.69;100.00
41260;BME280;26993;48.958;9.330;2022-12-07T01:24:09;98561.84;;;2.59;100.00
41260;BME280;26993;48.958;9.330;2022-12-07T01:26:56;98562.22;;;2.44;100.00
41260;BME280;26993;48.958;9.330;2022-12-07T01:29:43;98565.91;;;2.52;100.00
41260;BME280;26993;48.958;9.330;2022-12-07T01:32:30;98564.00;;;2.46;100.00
41260;BME280;26993;48.958;9.330;2022-12-07T01:35:18;98565.94;;;2.53;100.00
41260;BME280;26993;48.958;9.330;2022-12-07T01:38:04;98568.78;;;2.63;100.00
41260;BME280;26993;48.958;9.330;2022-12-07T01:40:55;98576.91;;;2.52;100.00
41260;BME280;26993;48.958;9.330;2022-12-07T01:44:10;98571.78;;;2.51;100.00
41260;BME280;26993;48.958;9.330;2022-12-07T01:46:57;98570.97;;;2.52;100.00
41260;BME280;26993;48.958;9.330;2022-12-07T01:49:47;98576.97;;;2.54;100.00
41260;BME280;26993;48.958;9.330;2022-12-07T01:52:37;98588.22;;;2.61;100.00
41260;BME280;26993;48.958;9.330;2022-12-07T01:55:25;98577.69;;;2.50;100.00
41260;BME280;26993;48.958;9.330;2022-12-07T01:58:13;98582.47;;;2.66;100.00
41260;BME280;26993;48.958;9.330;2022-12-07T02:01:01;98575.59;;;2.64;100.00
41260;BME280;26993;48.958;9.330;2022-12-07T02:03:48;98571.16;;;2.58;100.00
41260;BME280;26993;48.958;9.330;2022-12-07T02:06:35;98574.69;;;2.62;100.00
41260;BME280;26993;48.958;9.330;2022-12-07T02:09:24;98569.59;;;2.62;100.00
41260;BME280;26993;48.958;9.330;2022-12-07T02:12:11;98576.28;;;2.60;100.00
41260;BME280;26993;48.958;9.330;2022-12-07T02:14:57;98563.69;;;2.63;100.00
41260;BME280;26993;48.958;9.330;2022-12-07T02:17:48;98566.03;;;2.57;100.00
41260;BME280;26993;48.958;9.330;2022-12-07T02:20:41;98571.25;;;2.61;100.00
41260;BME280;26993;48.958;9.330;2022-12-07T02:23:40;98565.28;;;2.59;100.00
41260;BME280;26993;48.958;9.330;2022-12-07T02:29:58;98559.03;;;2.24;100.00
41260;BME280;26993;48.958;9.330;2022-12-07T02:32:51;98557.22;;;2.19;100.00
41260;BME280;26993;48.958;9.330;2022-12-07T02:35:44;98563.00;;;2.15;100.00
41260;BME280;26993;48.958;9.330;2022-12-07T02:38:38;98558.19;;;2.23;100.00
41260;BME280;26993;48.958;9.330;2022-12-07T02:41:29;98559.31;;;2.07;100.00
41260;BME280;26993;48.958;9.330;2022-12-07T02:44:20;98556.69;;;2.04;100.00
41260;BME280;26993;48.958;9.330;2022-12-07T02:47:12;98553.09;;;1.99;100.00
41260;BME280;26993;48.958;9.330;2022-12-07T02:50:02;98556.97;;;1.87;100.00
41260;BME280;26993;48.958;9.330;2022-12-07T02:52:49;98552.88;;;1.67;100.00
41260;BME280;26993;48.958;9.330;2022-12-07T02:55:39;98551.16;;;1.66;100.00
41260;BME280;26993;48.958;9.330;2022-12-07T02:58:35;98548.41;;;1.60;100.00
41260;BME280;26993;48.958;9.330;2022-12-07T03:01:30;98550.31;;;1.42;100.00
41260;BME280;26993;48.958;9.330;2022-12-07T03:04:33;98541.63;;;1.36;100.00
41260;BME280;26993;48.958;9.330;2022-12-07T03:07:32;98545.97;;;1.40;100.00
41260;BME280;26993;48.958;9.330;2022-12-07T03:10:27;98543.06;;;1.53;100.00
41260;BME280;26993;48.958;9.330;2022-12-07T03:13:20;98551.03;;;1.63;100.00
41260;BME280;26993;48.958;9.330;2022-12-07T03:16:14;98551.63;;;1.55;100.00
41260;BME280;26993;48.958;9.330;2022-12-07T03:19:05;98546.09;;;1.43;100.00
41260;BME280;26993;48.958;9.330;2022-12-07T03:21:57;98542.81;;;1.46;100.00
41260;BME280;26993;48.958;9.330;2022-12-07T03:24:47;98542.66;;;1.65;100.00
41260;BME280;26993;48.958;9.330;2022-12-07T03:27:41;98532.69;;;1.71;100.00
41260;BME280;26993;48.958;9.330;2022-12-07T03:30:32;98540.66;;;1.81;100.00
41260;BME280;26993;48.958;9.330;2022-12-07T03:33:22;98536.91;;;1.95;100.00
41260;BME280;26993;48.958;9.330;2022-12-07T03:36:14;98526.03;;;1.99;100.00
41260;BME280;26993;48.958;9.330;2022-12-07T03:39:13;98533.59;;;1.98;100.00
41260;BME280;26993;48.958;9.330;2022-12-07T03:42:05;98536.25;;;2.01;100.00
41260;BME280;26993;48.958;9.330;2022-12-07T03:44:54;98532.75;;;2.23;100.00
41260;BME280;26993;48.958;9.330;2022-12-07T03:47:46;98527.00;;;2.03;100.00
41260;BME280;26993;48.958;9.330;2022-12-07T03:50:40;98515.00;;;1.73;100.00
41260;BME280;26993;48.958;9.330;2022-12-07T03:53:34;98494.03;;;1.79;100.00
41260;BME280;26993;48.958;9.330;2022-12-07T03:56:24;98499.97;;;1.55;100.00
41260;BME280;26993;48.958;9.330;2022-12-07T03:59:13;98495.34;;;1.43;100.00
41260;BME280;26993;48.958;9.330;2022-12-07T04:02:02;98491.88;;;1.41;100.00
41260;BME280;26993;48.958;9.330;2022-12-07T04:04:49;98496.31;;;1.47;100.00
41260;BME280;26993;48.958;9.330;2022-12-07T04:07:36;98495.03;;;1.35;100.00
41260;BME280;26993;48.958;9.330;2022-12-07T04:10:23;98493.44;;;1.37;100.00
41260;BME280;26993;48.958;9.330;2022-12-07T04:13:11;98495.50;;;1.48;100.00
41260;BME280;26993;48.958;9.330;2022-12-07T04:15:57;98500.03;;;1.32;100.00
41260;BME280;26993;48.958;9.330;2022-12-07T04:18:44;98497.03;;;1.20;100.00
41260;BME280;26993;48.958;9.330;2022-12-07T04:21:31;98500.19;;;1.37;100.00
41260;BME280;26993;48.958;9.330;2022-12-07T04:24:18;98498.25;;;1.54;100.00
41260;BME280;26993;48.958;9.330;2022-12-07T04:27:05;98492.56;;;1.61;100.00
41260;BME280;26993;48.958;9.330;2022-12-07T04:29:53;98486.16;;;1.72;100.00
41260;BME280;26993;48.958;9.330;2022-12-07T04:32:40;98486.47;;;1.56;100.00
41260;BME280;26993;48.958;9.330;2022-12-07T04:35:27;98491.16;;;1.69;100.00
41260;BME280;26993;48.958;9.330;2022-12-07T04:38:14;98501.78;;;2.09;100.00
41260;BME280;26993;48.958;9.330;2022-12-07T04:41:04;98514.38;;;2.32;100.00
41260;BME280;26993;48.958;9.330;2022-12-07T04:43:51;98512.72;;;2.06;100.00
41260;BME280;26993;48.958;9.330;2022-12-07T04:46:39;98509.09;;;2.00;100.00
41260;BME280;26993;48.958;9.330;2022-12-07T04:49:26;98505.03;;;2.05;100.00
41260;BME280;26993;48.958;9.330;2022-12-07T04:52:13;98505.50;;;2.19;100.00
41260;BME280;26993;48.958;9.330;2022-12-07T04:55:00;98511.19;;;2.12;100.00
41260;BME280;26993;48.958;9.330;2022-12-07T04:57:46;98507.72;;;2.10;100.00
41260;BME280;26993;48.958;9.330;2022-12-07T05:00:33;98513.50;;;2.04;100.00
41260;BME280;26993;48.958;9.330;2022-12-07T05:03:21;98512.47;;;1.99;100.00
41260;BME280;26993;48.958;9.330;2022-12-07T05:06:08;98517.44;;;1.96;100.00
41260;BME280;26993;48.958;9.330;2022-12-07T05:08:55;98514.03;;;1.95;100.00
41260;BME280;26993;48.958;9.330;2022-12-07T05:11:42;98516.53;;;2.19;100.00
41260;BME280;26993;48.958;9.330;2022-12-07T05:14:29;98521.94;;;2.03;100.00
41260;BME280;26993;48.958;9.330;2022-12-07T05:17:15;98519.13;;;1.95;100.00
41260;BME280;26993;48.958;9.330;2022-12-07T05:20:05;98509.84;;;1.96;100.00
41260;BME280;26993;48.958;9.330;2022-12-07T05:22:52;98516.53;;;1.94;100.00
41260;BME280;26993;48.958;9.330;2022-12-07T05:25:39;98513.81;;;1.89;100.00
41260;BME280;26993;48.958;9.330;2022-12-07T05:28:25;98509.31;;;1.80;100.00
41260;BME280;26993;48.958;9.330;2022-12-07T05:31:12;98500.75;;;1.78;100.00
41260;BME280;26993;48.958;9.330;2022-12-07T05:33:58;98497.22;;;1.73;100.00
41260;BME280;26993;48.958;9.330;2022-12-07T05:36:47;98507.41;;;1.74;100.00
41260;BME280;26993;48.958;9.330;2022-12-07T05:39:34;98508.03;;;1.67;100.00
41260;BME280;26993;48.958;9.330;2022-12-07T05:42:21;98508.97;;;1.71;100.00
41260;BME280;26993;48.958;9.330;2022-12-07T05:45:08;98515.88;;;1.75;100.00
41260;BME280;26993;48.958;9.330;2022-12-07T05:47:55;98510.44;;;1.88;100.00
41260;BME280;26993;48.958;9.330;2022-12-07T05:50:42;98512.00;;;1.85;100.00
41260;BME280;26993;48.958;9.330;2022-12-07T05:53:30;98510.94;;;1.78;100.00
41260;BME280;26993;48.958;9.330;2022-12-07T05:56:17;98512.97;;;1.64;100.00
41260;BME280;26993;48.958;9.330;2022-12-07T05:59:03;98505.44;;;1.66;100.00
41260;BME280;26993;48.958;9.330;2022-12-07T06:02:09;98501.66;;;1.79;100.00
41260;BME280;26993;48.958;9.330;2022-12-07T06:04:56;98504.91;;;1.76;100.00
41260;BME280;26993;48.958;9.330;2022-12-07T06:07:43;98506.38;;;1.94;100.00
41260;BME280;26993;48.958;9.330;2022-12-07T06:10:31;98504.75;;;1.96;100.00
41260;BME280;26993;48.958;9.330;2022-12-07T06:13:18;98492.13;;;1.99;100.00
41260;BME280;26993;48.958;9.330;2022-12-07T06:16:05;98492.09;;;1.97;100.00
41260;BME280;26993;48.958;9.330;2022-12-07T06:18:52;98504.94;;;2.02;100.00
41260;BME280;26993;48.958;9.330;2022-12-07T06:21:39;98506.25;;;2.16;100.00
41260;BME280;26993;48.958;9.330;2022-12-07T06:24:26;98516.84;;;2.03;100.00
41260;BME280;26993;48.958;9.330;2022-12-07T06:27:14;98515.06;;;2.00;100.00
41260;BME280;26993;48.958;9.330;2022-12-07T06:30:01;98516.69;;;1.98;100.00
41260;BME280;26993;48.958;9.330;2022-12-07T06:32:51;98512.41;;;1.97;100.00
41260;BME280;26993;48.958;9.330;2022-12-07T06:35:38;98518.31;;;1.96;100.00
41260;BME280;26993;48.958;9.330;2022-12-07T06:38:25;98508.13;;;1.96;100.00
41260;BME280;26993;48.958;9.330;2022-12-07T06:41:11;98516.56;;;1.95;100.00
41260;BME280;26993;48.958;9.330;2022-12-07T06:43:59;98523.31;;;1.93;100.00
41260;BME280;26993;48.958;9.330;2022-12-07T06:46:46;98519.06;;;1.94;100.00
41260;BME280;26993;48.958;9.330;2022-12-07T06:49:33;98518.16;;;1.92;100.00
41260;BME280;26993;48.958;9.330;2022-12-07T06:52:19;98514.84;;;1.94;100.00
41260;BME280;26993;48.958;9.330;2022-12-07T06:55:07;98520.88;;;1.98;100.00
41260;BME280;26993;48.958;9.330;2022-12-07T06:57:53;98521.16;;;2.05;100.00
41260;BME280;26993;48.958;9.330;2022-12-07T07:00:42;98525.97;;;1.98;100.00
41260;BME280;26993;48.958;9.330;2022-12-07T07:03:29;98525.16;;;1.99;100.00
41260;BME280;26993;48.958;9.330;2022-12-07T07:06:16;98523.38;;;1.96;100.00
41260;BME280;26993;48.958;9.330;2022-12-07T07:09:02;98525.88;;;1.95;100.00
41260;BME280;26993;48.958;9.330;2022-12-07T07:11:49;98524.78;;;1.88;100.00
41260;BME280;26993;48.958;9.330;2022-12-07T07:14:36;98519.19;;;1.97;100.00
41260;BME280;26993;48.958;9.330;2022-12-07T07:17:24;98520.19;;;2.02;100.00
41260;BME280;26993;48.958;9.330;2022-12-07T07:20:11;98536.03;;;1.95;100.00
41260;BME280;26993;48.958;9.330;2022-12-07T07:22:58;98527.63;;;1.96;100.00
41260;BME280;26993;48.958;9.330;2022-12-07T07:25:45;98524.16;;;1.94;100.00
41260;BME280;26993;48.958;9.330;2022-12-07T07:28:32;98533.75;;;2.02;100.00
41260;BME280;26993;48.958;9.330;2022-12-07T07:31:19;98528.63;;;2.01;100.00
41260;BME280;26993;48.958;9.330;2022-12-07T07:34:07;98531.88;;;1.97;100.00
41260;BME280;26993;48.958;9.330;2022-12-07T07:36:53;98534.69;;;2.04;100.00
41260;BME280;26993;48.958;9.330;2022-12-07T07:39:40;98533.75;;;2.02;100.00
41260;BME280;26993;48.958;9.330;2022-12-07T07:42:27;98530.56;;;2.08;100.00
41260;BME280;26993;48.958;9.330;2022-12-07T07:45:14;98534.03;;;2.10;100.00
41260;BME280;26993;48.958;9.330;2022-12-07T07:48:00;98533.88;;;2.05;100.00
41260;BME280;26993;48.958;9.330;2022-12-07T07:50:48;98539.19;;;2.13;100.00
41260;BME280;26993;48.958;9.330;2022-12-07T07:53:35;98537.78;;;2.21;100.00
41260;BME280;26993;48.958;9.330;2022-12-07T07:56:22;98540.13;;;2.15;100.00
41260;BME280;26993;48.958;9.330;2022-12-07T07:59:09;98542.78;;;2.18;100.00
41260;BME280;26993;48.958;9.330;2022-12-07T08:01:55;98547.16;;;2.24;100.00
41260;BME280;26993;48.958;9.330;2022-12-07T08:04:42;98553.03;;;2.21;100.00
41260;BME280;26993;48.958;9.330;2022-12-07T08:07:30;98556.59;;;2.27;100.00
41260;BME280;26993;48.958;9.330;2022-12-07T08:10:17;98556.59;;;2.27;100.00
41260;BME280;26993;48.958;9.330;2022-12-07T08:13:04;98552.47;;;2.30;100.00
41260;BME280;26993;48.958;9.330;2022-12-07T08:16:03;98550.19;;;2.38;100.00
41260;BME280;26993;48.958;9.330;2022-12-07T08:18:50;98556.22;;;2.42;100.00
41260;BME280;26993;48.958;9.330;2022-12-07T08:21:37;98554.44;;;2.39;100.00
41260;BME280;26993;48.958;9.330;2022-12-07T08:24:25;98552.06;;;2.44;100.00
41260;BME280;26993;48.958;9.330;2022-12-07T08:27:12;98554.59;;;2.44;100.00
41260;BME280;26993;48.958;9.330;2022-12-07T08:29:58;98556.41;;;2.48;100.00
41260;BME280;26993;48.958;9.330;2022-12-07T08:32:46;98552.25;;;2.50;100.00
41260;BME280;26993;48.958;9.330;2022-12-07T08:35:33;98556.56;;;2.52;100.00
41260;BME280;26993;48.958;9.330;2022-12-07T08:38:20;98564.53;;;2.63;100.00
41260;BME280;26993;48.958;9.330;2022-12-07T08:41:08;98560.44;;;2.68;100.00
41260;BME280;26993;48.958;9.330;2022-12-07T08:43:55;98558.69;;;2.66;100.00
41260;BME280;26993;48.958;9.330;2022-12-07T08:46:45;98559.72;;;2.71;100.00
41260;BME280;26993;48.958;9.330;2022-12-07T08:49:37;98559.13;;;2.80;100.00
41260;BME280;26993;48.958;9.330;2022-12-07T08:52:25;98557.50;;;2.82;100.00
41260;BME280;26993;48.958;9.330;2022-12-07T08:55:12;98557.44;;;2.80;100.00
41260;BME280;26993;48.958;9.330;2022-12-07T08:58:00;98562.91;;;2.93;100.00
41260;BME280;26993;48.958;9.330;2022-12-07T09:00:48;98563.78;;;2.93;100.00
41260;BME280;26993;48.958;9.330;2022-12-07T09:03:35;98564.09;;;3.04;100.00
41260;BME280;26993;48.958;9.330;2022-12-07T09:06:22;98563.28;;;3.05;99.60
41260;BME280;26993;48.958;9.330;2022-12-07T09:09:10;98563.56;;;3.14;99.32
41260;BME280;26993;48.958;9.330;2022-12-07T09:11:58;98561.28;;;3.24;97.96
41260;BME280;26993;48.958;9.330;2022-12-07T09:14:46;98559.59;;;3.24;97.72
41260;BME280;26993;48.958;9.330;2022-12-07T09:17:33;98562.69;;;3.14;96.92
41260;BME280;26993;48.958;9.330;2022-12-07T09:20:20;98555.19;;;3.18;97.29
41260;BME280;26993;48.958;9.330;2022-12-07T09:23:07;98563.00;;;3.25;96.52
41260;BME280;26993;48.958;9.330;2022-12-07T09:25:53;98560.69;;;3.32;96.32
41260;BME280;26993;48.958;9.330;2022-12-07T09:28:40;98556.63;;;3.39;94.66
41260;BME280;26993;48.958;9.330;2022-12-07T09:31:28;98553.66;;;3.54;93.42
41260;BME280;26993;48.958;9.330;2022-12-07T09:34:15;98557.13;;;3.56;92.77
41260;BME280;26993;48.958;9.330;2022-12-07T09:37:01;98560.66;;;3.61;91.96
41260;BME280;26993;48.958;9.330;2022-12-07T09:39:49;98557.25;;;3.61;91.69
41260;BME280;26993;48.958;9.330;2022-12-07T09:42:37;98560.22;;;3.46;91.58
41260;BME280;26993;48.958;9.330;2022-12-07T09:45:29;98558.28;;;3.37;92.43
41260;BME280;26993;48.958;9.330;2022-12-07T09:48:22;98555.66;;;3.36;92.38
41260;BME280;26993;48.958;9.330;2022-12-07T09:51:15;98557.69;;;3.47;91.56
41260;BME280;26993;48.958;9.330;2022-12-07T09:54:02;98555.22;;;3.49;90.95
41260;BME280;26993;48.958;9.330;2022-12-07T09:56:49;98550.81;;;3.43;90.96
41260;BME280;26993;48.958;9.330;2022-12-07T09:59:36;98544.63;;;3.65;89.50
41260;BME280;26993;48.958;9.330;2022-12-07T10:02:28;98542.00;;;3.62;89.04
41260;BME280;26993;48.958;9.330;2022-12-07T10:05:24;98540.44;;;3.68;89.43
41260;BME280;26993;48.958;9.330;2022-12-07T10:08:13;98538.00;;;3.72;88.86
41260;BME280;26993;48.958;9.330;2022-12-07T10:11:01;98534.50;;;3.67;89.11
41260;BME280;26993;48.958;9.330;2022-12-07T10:13:51;98534.81;;;3.79;88.84
41260;BME280;26993;48.958;9.330;2022-12-07T10:16:40;98528.94;;;3.84;88.02
41260;BME280;26993;48.958;9.330;2022-12-07T10:19:29;98534.25;;;3.59;87.78
41260;BME280;26993;48.958;9.330;2022-12-07T10:22:17;98535.28;;;3.64;89.62
41260;BME280;26993;48.958;9.330;2022-12-07T10:25:09;98523.38;;;3.65;89.79
41260;BME280;26993;48.958;9.330;2022-12-07T10:28:16;98523.00;;;3.51;89.98
41260;BME280;26993;48.958;9.330;2022-12-07T10:31:15;98528.38;;;3.62;90.46
41260;BME280;26993;48.958;9.330;2022-12-07T10:34:03;98526.06;;;3.70;89.91
41260;BME280;26993;48.958;9.330;2022-12-07T10:36:50;98519.91;;;3.63;90.76
41260;BME280;26993;48.958;9.330;2022-12-07T10:39:42;98517.47;;;3.66;90.56
41260;BME280;26993;48.958;9.330;2022-12-07T10:42:31;98520.66;;;3.59;91.71
41260;BME280;26993;48.958;9.330;2022-12-07T10:45:18;98508.47;;;3.79;90.57
41260;BME280;26993;48.958;9.330;2022-12-07T10:48:09;98502.47;;;3.77;91.42
41260;BME280;26993;48.958;9.330;2022-12-07T10:51:04;98502.78;;;3.89;91.50
41260;BME280;26993;48.958;9.330;2022-12-07T10:54:03;98502.38;;;3.74;91.61
41260;BME280;26993;48.958;9.330;2022-12-07T10:57:13;98498.50;;;3.88;91.64
41260;BME280;26993;48.958;9.330;2022-12-07T11:00:11;98495.25;;;3.94;92.19
41260;BME280;26993;48.958;9.330;2022-12-07T11:03:13;98497.63;;;3.86;93.07
41260;BME280;26993;48.958;9.330;2022-12-07T11:06:12;98487.63;;;3.95;92.91
41260;BME280;26993;48.958;9.330;2022-12-07T11:09:16;98489.44;;;3.98;93.46
41260;BME280;26993;48.958;9.330;2022-12-07T11:12:13;98491.97;;;3.98;92.83
41260;BME280;26993;48.958;9.330;2022-12-07T11:15:13;98483.56;;;4.02;93.11
41260;BME280;26993;48.958;9.330;2022-12-07T11:18:06;98475.34;;;4.14;92.76
41260;BME280;26993;48.958;9.330;2022-12-07T11:20:59;98481.16;;;4.08;93.12
41260;BME280;26993;48.958;9.330;2022-12-07T11:24:00;98480.34;;;4.09;93.07
41260;BME280;26993;48.958;9.330;2022-12-07T11:26:57;98475.13;;;4.05;93.30
41260;BME280;26993;48.958;9.330;2022-12-07T11:29:58;98468.44;;;4.10;92.87
41260;BME280;26993;48.958;9.330;2022-12-07T11:33:00;98464.25;;;4.12;93.33
41260;BME280;26993;48.958;9.330;2022-12-07T11:35:57;98465.84;;;4.07;93.58
41260;BME280;26993;48.958;9.330;2022-12-07T11:38:52;98456.81;;;4.20;92.38
41260;BME280;26993;48.958;9.330;2022-12-07T11:41:41;98461.81;;;4.17;92.71
41260;BME280;26993;48.958;9.330;2022-12-07T11:44:33;98455.31;;;4.29;92.59
41260;BME280;26993;48.958;9.330;2022-12-07T11:47:28;98452.16;;;4.40;92.21
41260;BME280;26993;48.958;9.330;2022-12-07T11:50:26;98462.41;;;4.41;92.20
41260;BME280;26993;48.958;9.330;2022-12-07T11:53:17;98454.63;;;4.35;92.12
41260;BME280;26993;48.958;9.330;2022-12-07T11:56:09;98451.13;;;4.32;92.48
41260;BME280;26993;48.958;9.330;2022-12-07T11:59:01;98449.28;;;4.26;92.72
41260;BME280;26993;48.958;9.330;2022-12-07T12:01:55;98444.19;;;4.26;92.09
41260;BME280;26993;48.958;9.330;2022-12-07T12:04:51;98436.47;;;4.23;91.85
41260;BME280;26993;48.958;9.330;2022-12-07T12:07:40;98436.41;;;4.20;91.84
41260;BME280;26993;48.958;9.330;2022-12-07T12:10:37;98429.63;;;4.22;91.38
41260;BME280;26993;48.958;9.330;2022-12-07T12:13:45;98432.97;;;4.19;91.41
41260;BME280;26993;48.958;9.330;2022-12-07T12:17:01;98427.72;;;4.11;92.32
41260;BME280;26993;48.958;9.330;2022-12-07T12:20:03;98431.22;;;4.17;91.88
41260;BME280;26993;48.958;9.330;2022-12-07T12:22:54;98420.06;;;4.11;92.84
41260;BME280;26993;48.958;9.330;2022-12-07T12:25:44;98419.28;;;4.16;92.86
41260;BME280;26993;48.958;9.330;2022-12-07T12:28:37;98423.69;;;4.23;92.46
41260;BME280;26993;48.958;9.330;2022-12-07T12:31:34;98421.09;;;4.20;91.41
41260;BME280;26993;48.958;9.330;2022-12-07T12:34:33;98421.81;;;4.14;91.90
41260;BME280;26993;48.958;9.330;2022-12-07T12:37:46;98421.16;;;4.23;91.94
41260;BME280;26993;48.958;9.330;2022-12-07T12:40:41;98420.94;;;4.13;92.15
41260;BME280;26993;48.958;9.330;2022-12-07T12:43:50;98417.19;;;3.99;92.98
41260;BME280;26993;48.958;9.330;2022-12-07T12:46:58;98413.91;;;4.03;93.18
41260;BME280;26993;48.958;9.330;2022-12-07T12:50:15;98415.63;;;4.04;92.67
41260;BME280;26993;48.958;9.330;2022-12-07T12:53:16;98414.72;;;4.01;93.38
41260;BME280;26993;48.958;9.330;2022-12-07T12:56:35;98419.25;;;4.12;93.09
41260;BME280;26993;48.958;9.330;2022-12-07T12:59:28;98410.28;;;3.93;93.45
41260;BME280;26993;48.958;9.330;2022-12-07T13:02:20;98406.25;;;4.02;93.92
41260;BME280;26993;48.958;9.330;2022-12-07T13:05:18;98404.44;;;3.99;94.42
41260;BME280;26993;48.958;9.330;2022-12-07T13:08:14;98397.72;;;4.01;94.46
41260;BME280;26993;48.958;9.330;2022-12-07T13:11:17;98390.03;;;4.00;94.41
41260;BME280;26993;48.958;9.330;2022-12-07T13:14:51;98389.22;;;4.01;94.58
41260;BME280;26993;48.958;9.330;2022-12-07T13:18:02;98390.84;;;3.99;94.27
41260;BME280;26993;48.958;9.330;2022-12-07T13:20:51;98387.50;;;4.00;93.97
41260;BME280;26993;48.958;9.330;2022-12-07T13:23:54;98385.88;;;4.03;93.54
41260;BME280;26993;48.958;9.330;2022-12-07T13:26:44;98384.03;;;3.97;94.21
41260;BME280;26993;48.958;9.330;2022-12-07T13:29:36;98375.56;;;3.99;94.53
41260;BME280;26993;48.958;9.330;2022-12-07T13:32:25;98381.00;;;4.12;94.18
41260;BME280;26993;48.958;9.330;2022-12-07T13:35:31;98379.31;;;4.15;93.80
41260;BME280;26993;48.958;9.330;2022-12-07T13:38:24;98378.28;;;4.06;93.26
41260;BME280;26993;48.958;9.330;2022-12-07T13:41:15;98378.81;;;4.29;92.76
41260;BME280;26993;48.958;9.330;2022-12-07T13:44:08;98381.16;;;4.20;91.85
41260;BME280;26993;48.958;9.330;2022-12-07T13:47:01;98373.13;;;4.03;93.10
41260;BME280;26993;48.958;9.330;2022-12-07T13:49:52;98377.56;;;4.12;93.16
41260;BME280;26993;48.958;9.330;2022-12-07T13:52:44;98373.59;;;4.23;93.66
41260;BME280;26993;48.958;9.330;2022-12-07T13:55:31;98373.47;;;4.19;93.99
41260;BME280;26993;48.958;9.330;2022-12-07T13:58:21;98363.56;;;4.33;92.39
41260;BME280;26993;48.958;9.330;2022-12-07T14:01:08;98369.47;;;4.30;92.20
41260;BME280;26993;48.958;9.330;2022-12-07T14:03:55;98370.34;;;4.31;92.12
41260;BME280;26993;48.958;9.330;2022-12-07T14:06:48;98373.84;;;4.36;91.73
41260;BME280;26993;48.958;9.330;2022-12-07T14:09:35;98372.84;;;4.29;91.45
41260;BME280;26993;48.958;9.330;2022-12-07T14:12:21;98375.25;;;4.23;91.81
41260;BME280;26993;48.958;9.330;2022-12-07T14:15:20;98371.88;;;4.24;92.40
41260;BME280;26993;48.958;9.330;2022-12-07T14:18:25;98371.81;;;4.21;92.13
41260;BME280;26993;48.958;9.330;2022-12-07T14:21:16;98374.47;;;4.25;91.58
41260;BME280;26993;48.958;9.330;2022-12-07T14:24:10;98382.66;;;4.12;92.51
41260;BME280;26993;48.958;9.330;2022-12-07T14:26:57;98379.38;;;4.16;92.00
41260;BME280;26993;48.958;9.330;2022-12-07T14:29:44;98375.81;;;4.09;91.86
41260;BME280;26993;48.958;9.330;2022-12-07T14:32:34;98373.13;;;4.03;93.42
41260;BME280;26993;48.958;9.330;2022-12-07T14:35:24;98369.00;;;4.10;92.85
41260;BME280;26993;48.958;9.330;2022-12-07T14:38:11;98369.94;;;4.13;91.87
41260;BME280;26993;48.958;9.330;2022-12-07T14:40:57;98367.16;;;4.03;91.98
41260;BME280;26993;48.958;9.330;2022-12-07T14:44:08;98370.31;;;3.92;93.21
41260;BME280;26993;48.958;9.330;2022-12-07T14:46:56;98369.34;;;3.87;93.66
41260;BME280;26993;48.958;9.330;2022-12-07T14:49:44;98364.44;;;3.95;93.31
41260;BME280;26993;48.958;9.330;2022-12-07T14:52:30;98369.34;;;3.87;93.27
41260;BME280;26993;48.958;9.330;2022-12-07T14:55:22;98369.28;;;3.84;93.54
41260;BME280;26993;48.958;9.330;2022-12-07T14:58:12;98369.00;;;4.10;92.24
41260;BME280;26993;48.958;9.330;2022-12-07T15:01:00;98374.03;;;4.05;91.92
41260;BME280;26993;48.958;9.330;2022-12-07T15:03:47;98374.78;;;4.03;92.41
41260;BME280;26993;48.958;9.330;2022-12-07T15:06:35;98378.50;;;4.16;92.19
41260;BME280;26993;48.958;9.330;2022-12-07T15:09:21;98374.22;;;3.78;92.70
41260;BME280;26993;48.958;9.330;2022-12-07T15:12:08;98377.06;;;3.55;92.92